createdAt,value
2019-02-10T00:01:43.541Z,99762.62
2019-02-10T00:04:12.658Z,99750.80
2019-02-10T00:06:41.731Z,99747.10
2019-02-10T00:09:10.812Z,99742.52
2019-02-10T00:11:40.166Z,99727.14
2019-02-10T00:14:09.303Z,99724.86
2019-02-10T00:16:38.572Z,99726.95
2019-02-10T00:19:07.797Z,99724.42
2019-02-10T00:21:36.998Z,99734.34
2019-02-10T00:24:06.156Z,99734.96
2019-02-10T00:26:35.430Z,99729.03
2019-02-10T00:29:04.662Z,99722.77
2019-02-10T00:31:33.897Z,99713.39
2019-02-10T00:34:02.991Z,99709.72
2019-02-10T00:36:33.570Z,99710.02
2019-02-10T00:39:03.737Z,99702.91
2019-02-10T00:41:32.799Z,99695.09
2019-02-10T00:44:02.025Z,99690.52
2019-02-10T00:46:31.053Z,99686.86
2019-02-10T00:49:00.387Z,99683.75
2019-02-10T00:51:29.652Z,99679.53
2019-02-10T00:53:58.884Z,99676.03
2019-02-10T00:56:28.039Z,99666.84
2019-02-10T00:58:57.232Z,99663.91
2019-02-10T01:01:26.485Z,99660.20
2019-02-10T01:03:55.811Z,99651.59
2019-02-10T01:06:27.187Z,99653.95
2019-02-10T01:08:56.294Z,99653.42
2019-02-10T01:11:25.380Z,99639.12
2019-02-10T01:13:54.502Z,99639.19
2019-02-10T01:16:23.803Z,99640.92
2019-02-10T01:19:14.419Z,99634.73
2019-02-10T01:21:45.268Z,99634.94
2019-02-10T01:24:14.349Z,99628.32
2019-02-10T01:26:43.389Z,99615.11
2019-02-10T01:29:12.476Z,99620.55
2019-02-10T01:31:41.512Z,99607.80
2019-02-10T01:34:10.775Z,99602.89
2019-02-10T01:36:40.057Z,99598.75
2019-02-10T01:39:20.298Z,99585.00
2019-02-10T01:41:49.346Z,99575.69
2019-02-10T01:44:18.616Z,99576.62
2019-02-10T01:46:47.743Z,99560.26
2019-02-10T01:49:16.903Z,99559.73
2019-02-10T01:51:46.088Z,99550.78
2019-02-10T01:54:15.209Z,99542.27
2019-02-10T01:56:44.292Z,99530.52
2019-02-10T01:59:13.623Z,99526.08
2019-02-10T02:01:42.845Z,99516.53
2019-02-10T02:04:12.422Z,99511.52
2019-02-10T02:06:41.520Z,99508.92
2019-02-10T02:09:13.025Z,99500.75
2019-02-10T02:11:42.640Z,99495.04
2019-02-10T02:14:12.004Z,99490.37
2019-02-10T02:16:41.120Z,99481.20
2019-02-10T02:19:10.384Z,99472.78
2019-02-10T02:21:39.511Z,99471.12
2019-02-10T02:24:08.711Z,99468.66
2019-02-10T02:26:38.111Z,99459.31
2019-02-10T02:29:07.188Z,99441.86
2019-02-10T02:31:36.588Z,99433.98
2019-02-10T02:34:05.814Z,99428.34
2019-02-10T02:36:42.108Z,99429.87
2019-02-10T02:39:11.399Z,99422.16
2019-02-10T02:41:40.490Z,99412.70
2019-02-10T02:44:09.529Z,99399.05
2019-02-10T02:46:38.595Z,99408.47
2019-02-10T02:49:07.941Z,99399.03
2019-02-10T02:51:37.134Z,99386.82
2019-02-10T02:54:06.599Z,99377.78
2019-02-10T02:56:35.702Z,99375.95
2019-02-10T02:59:04.782Z,99375.86
2019-02-10T03:01:34.140Z,99364.36
2019-02-10T03:04:03.165Z,99356.64
2019-02-10T03:06:48.340Z,99358.31
2019-02-10T03:09:17.879Z,99350.08
2019-02-10T03:11:46.919Z,99346.71
2019-02-10T03:14:16.043Z,99343.53
2019-02-10T03:16:45.037Z,99330.28
2019-02-10T03:19:14.342Z,99330.05
2019-02-10T03:21:43.383Z,99320.42
2019-02-10T03:24:12.594Z,99313.94
2019-02-10T03:26:43.552Z,99307.34
2019-02-10T03:29:12.975Z,99298.03
2019-02-10T03:31:42.184Z,99282.89
2019-02-10T03:34:11.462Z,99281.59
2019-02-10T03:36:40.644Z,99272.04
2019-02-10T03:39:09.845Z,99269.78
2019-02-10T03:41:39.013Z,99257.67
2019-02-10T03:44:11.302Z,99256.34
2019-02-10T03:46:40.492Z,99242.48
2019-02-10T03:49:09.778Z,99240.83
2019-02-10T03:51:38.939Z,99233.02
2019-02-10T03:54:08.296Z,99251.80
2019-02-10T03:56:37.363Z,99234.69
2019-02-10T03:59:06.585Z,99237.38
2019-02-10T04:01:37.666Z,99238.41
2019-02-10T04:04:06.798Z,99232.42
2019-02-10T04:06:36.229Z,99227.91
2019-02-10T04:09:06.388Z,99214.48
2019-02-10T04:11:35.665Z,99218.36
2019-02-10T04:14:04.880Z,99214.06
2019-02-10T04:16:34.021Z,99200.98
2019-02-10T04:19:03.240Z,99184.87
2019-02-10T04:21:32.451Z,99188.97
2019-02-10T04:24:01.672Z,99188.17
2019-02-10T04:26:30.991Z,99181.45
2019-02-10T04:29:00.244Z,99180.55
2019-02-10T04:31:29.312Z,99174.61
2019-02-10T04:33:58.783Z,99167.02
2019-02-10T04:36:27.867Z,99155.43
2019-02-10T04:38:56.926Z,99155.01
2019-02-10T04:41:26.349Z,99145.67
2019-02-10T04:43:55.391Z,99145.17
2019-02-10T04:46:24.792Z,99148.67
2019-02-10T04:48:53.869Z,99145.70
2019-02-10T04:51:22.963Z,99128.36
2019-02-10T04:53:52.565Z,99112.97
2019-02-10T04:56:21.794Z,99106.47
2019-02-10T04:58:50.844Z,99097.96
2019-02-10T05:01:19.904Z,99092.19
2019-02-10T05:03:49.370Z,99084.20
2019-02-10T05:06:18.628Z,99083.69
2019-02-10T05:08:47.676Z,99084.49
2019-02-10T05:11:16.994Z,99072.91
2019-02-10T05:13:46.029Z,99068.18
2019-02-10T05:16:15.321Z,99065.16
2019-02-10T05:18:44.586Z,99059.03
2019-02-10T05:21:13.796Z,99054.62
2019-02-10T05:23:43.919Z,99044.59
2019-02-10T05:26:13.152Z,99035.59
2019-02-10T05:28:42.520Z,99029.53
2019-02-10T05:31:11.766Z,99025.69
2019-02-10T05:33:40.983Z,99025.59
2019-02-10T05:36:10.258Z,99011.77
2019-02-10T05:38:39.280Z,99016.35
2019-02-10T05:41:08.648Z,99012.90
2019-02-10T05:43:37.705Z,99001.03
2019-02-10T05:46:06.997Z,99001.08
2019-02-10T05:48:36.223Z,99002.21
2019-02-10T05:51:05.446Z,98991.32
2019-02-10T05:53:34.666Z,99002.63
2019-02-10T05:56:03.920Z,98987.69
2019-02-10T05:58:33.183Z,98989.45
2019-02-10T06:01:38.390Z,98994.91
2019-02-10T06:04:07.638Z,98992.03
2019-02-10T06:06:36.968Z,98981.01
2019-02-10T06:09:06.600Z,98973.42
2019-02-10T06:11:35.670Z,98971.59
2019-02-10T06:14:04.710Z,98961.20
2019-02-10T06:16:33.798Z,98950.26
2019-02-10T06:19:03.063Z,98954.03
2019-02-10T06:21:32.143Z,98945.75
2019-02-10T06:24:01.408Z,98940.92
2019-02-10T06:26:30.625Z,98937.46
2019-02-10T06:28:59.851Z,98924.63
2019-02-10T06:31:31.032Z,98928.73
2019-02-10T06:34:00.206Z,98926.13
2019-02-10T06:36:29.638Z,98921.67
2019-02-10T06:38:58.678Z,98906.14
2019-02-10T06:41:27.871Z,98893.39
2019-02-10T06:43:57.157Z,98899.87
2019-02-10T06:46:26.241Z,98884.27
2019-02-10T06:48:55.566Z,98878.20
2019-02-10T06:51:24.873Z,98876.16
2019-02-10T06:53:53.971Z,98867.94
2019-02-10T06:56:23.341Z,98863.83
2019-02-10T06:58:52.382Z,98854.07
2019-02-10T07:01:31.444Z,98838.91
2019-02-10T07:04:18.689Z,98829.73
2019-02-10T07:06:47.758Z,98810.63
2019-02-10T07:09:16.800Z,98801.39
2019-02-10T07:11:47.324Z,98799.48
2019-02-10T07:14:26.717Z,98790.00
2019-02-10T07:17:07.095Z,98791.34
2019-02-10T07:20:21.854Z,98791.07
2019-02-10T07:23:18.412Z,98787.34
2019-02-10T07:26:04.468Z,98786.45
2019-02-10T07:28:57.924Z,98779.03
2019-02-10T07:31:51.871Z,98770.85
2019-02-10T07:34:48.525Z,98777.83
2019-02-10T07:37:52.955Z,98769.89
2019-02-10T07:40:36.580Z,98760.34
2019-02-10T07:43:46.739Z,98755.92
2019-02-10T07:47:03.556Z,98746.42
2019-02-10T07:50:10.414Z,98755.28
2019-02-10T07:53:20.716Z,98740.38
2019-02-10T07:56:25.515Z,98727.80
2019-02-10T07:59:35.578Z,98731.33
2019-02-10T08:02:36.863Z,98710.05
2019-02-10T08:05:26.952Z,98720.06
2019-02-10T08:08:36.028Z,98710.86
2019-02-10T08:12:01.563Z,98692.86
2019-02-10T08:14:55.364Z,98705.96
2019-02-10T08:18:02.720Z,98705.34
2019-02-10T08:20:55.048Z,98693.02
2019-02-10T08:23:47.947Z,98683.44
2019-02-10T08:26:52.008Z,98690.01
2019-02-10T08:29:31.277Z,98691.48
2019-02-10T08:32:30.386Z,98676.38
2019-02-10T08:35:55.294Z,98675.77
2019-02-10T08:39:17.652Z,98673.78
2019-02-10T08:42:21.176Z,98658.94
2019-02-10T08:45:27.629Z,98650.66
2019-02-10T08:48:16.220Z,98637.64
2019-02-10T08:51:19.266Z,98636.87
2019-02-10T08:53:48.891Z,98630.58
2019-02-10T08:56:18.105Z,98607.31
2019-02-10T08:58:47.285Z,98609.02
2019-02-10T09:01:18.304Z,98586.74
2019-02-10T09:03:47.774Z,98594.83
2019-02-10T09:06:16.990Z,98583.54
2019-02-10T09:08:46.107Z,98579.80
2019-02-10T09:11:15.393Z,98565.06
2019-02-10T09:13:44.573Z,98561.59
2019-02-10T09:16:13.844Z,98565.89
2019-02-10T09:18:42.927Z,98557.54
2019-02-10T09:21:12.205Z,98541.92
2019-02-10T09:23:41.485Z,98551.39
2019-02-10T09:26:10.670Z,98533.84
2019-02-10T09:28:40.066Z,98544.63
2019-02-10T09:31:09.241Z,98527.72
2019-02-10T09:33:38.374Z,98525.80
2019-02-10T09:36:07.621Z,98499.37
2019-02-10T09:38:36.874Z,98499.70
2019-02-10T09:41:06.113Z,98505.67
2019-02-10T09:43:36.442Z,98488.14
2019-02-10T09:46:05.398Z,98484.63
2019-02-10T09:48:35.003Z,98462.77
2019-02-10T09:51:04.074Z,98472.72
2019-02-10T09:53:33.284Z,98465.42
2019-02-10T09:56:02.487Z,98476.73
2019-02-10T09:58:31.745Z,98470.55
2019-02-10T10:01:00.863Z,98459.72
2019-02-10T10:03:30.056Z,98463.16
2019-02-10T10:05:59.307Z,98449.09
2019-02-10T10:08:28.427Z,98451.49
2019-02-10T10:10:57.636Z,98460.47
2019-02-10T10:13:26.827Z,98458.56
2019-02-10T10:15:56.129Z,98449.12
2019-02-10T10:18:25.264Z,98456.23
2019-02-10T10:20:54.471Z,98438.94
2019-02-10T10:23:23.778Z,98448.66
2019-02-10T10:25:53.146Z,98458.41
2019-02-10T10:28:22.390Z,98443.58
2019-02-10T10:30:51.723Z,98444.14
2019-02-10T10:33:20.878Z,98435.50
2019-02-10T10:35:49.927Z,98435.78
2019-02-10T10:38:19.020Z,98433.89
2019-02-10T10:40:48.443Z,98426.08
2019-02-10T10:43:17.539Z,98423.13
2019-02-10T10:45:46.821Z,98402.87
2019-02-10T10:48:16.108Z,98405.03
2019-02-10T10:50:45.213Z,98408.00
2019-02-10T10:53:14.461Z,98415.84
2019-02-10T10:55:43.714Z,98407.73
2019-02-10T10:58:12.803Z,98401.80
2019-02-10T11:00:42.155Z,98395.04
2019-02-10T11:03:11.443Z,98395.04
2019-02-10T11:05:40.552Z,98383.72
2019-02-10T11:08:09.684Z,98366.17
2019-02-10T11:10:39.477Z,98368.07
2019-02-10T11:13:08.510Z,98337.31
2019-02-10T11:15:37.608Z,98338.66
2019-02-10T11:18:06.698Z,98310.63
2019-02-10T11:20:35.840Z,98322.19
2019-02-10T11:23:05.038Z,98320.85
2019-02-10T11:25:34.557Z,98314.34
2019-02-10T11:28:03.671Z,98333.46
2019-02-10T11:30:32.903Z,98316.50
2019-02-10T11:33:02.050Z,98316.23
2019-02-10T11:35:31.299Z,98307.33
2019-02-10T11:38:00.506Z,98297.06
2019-02-10T11:40:31.574Z,98306.81
2019-02-10T11:43:01.289Z,98302.51
2019-02-10T11:45:30.717Z,98305.26
2019-02-10T11:48:00.016Z,98255.41
2019-02-10T11:50:29.642Z,98297.72
2019-02-10T11:52:59.596Z,98283.14
2019-02-10T11:55:28.951Z,98259.98
2019-02-10T11:57:58.383Z,98234.92
2019-02-10T12:00:27.731Z,98245.16
2019-02-10T12:02:57.082Z,98252.96
2019-02-10T12:05:27.928Z,98244.61
2019-02-10T12:07:57.097Z,98247.05
2019-02-10T12:10:26.225Z,98243.55
2019-02-10T12:12:55.542Z,98234.08
2019-02-10T12:15:24.897Z,98294.36
2019-02-10T12:17:54.148Z,98274.55
2019-02-10T12:20:23.560Z,98278.80
2019-02-10T12:22:52.822Z,98284.84
2019-02-10T12:25:22.148Z,98295.84
2019-02-10T12:27:51.700Z,98308.34
2019-02-10T12:30:21.091Z,98282.88
2019-02-10T12:32:50.499Z,98302.56
2019-02-10T12:35:19.624Z,98302.39
2019-02-10T12:37:48.943Z,98328.34
2019-02-10T12:40:18.895Z,98308.87
2019-02-10T12:42:48.009Z,98280.61
2019-02-10T12:45:17.379Z,98300.87
2019-02-10T12:47:46.544Z,98299.30
2019-02-10T12:50:16.036Z,98295.75
2019-02-10T12:52:45.279Z,98294.66
2019-02-10T12:55:15.114Z,98276.56
2019-02-10T12:57:44.445Z,98287.02
2019-02-10T13:00:15.605Z,98266.61
2019-02-10T13:02:44.900Z,98252.89
2019-02-10T13:05:14.220Z,98255.02
2019-02-10T13:07:44.046Z,98252.69
2019-02-10T13:10:13.406Z,98239.41
2019-02-10T13:12:42.584Z,98239.77
2019-02-10T13:15:11.901Z,98253.21
2019-02-10T13:17:41.222Z,98233.16
2019-02-10T13:20:10.665Z,98233.99
2019-02-10T13:22:39.848Z,98226.26
2019-02-10T13:25:09.237Z,98233.98
2019-02-10T13:27:38.375Z,98225.41
2019-02-10T13:30:08.988Z,98207.14
2019-02-10T13:32:38.423Z,98202.63
2019-02-10T13:35:07.772Z,98199.03
2019-02-10T13:37:36.931Z,98195.82
2019-02-10T13:40:16.423Z,98193.73
2019-02-10T13:42:42.194Z,98185.72
2019-02-10T13:45:11.583Z,98189.19
2019-02-10T13:47:40.830Z,98189.70
2019-02-10T13:50:12.517Z,98187.27
2019-02-10T13:52:41.883Z,98187.28
2019-02-10T13:55:13.078Z,98224.08
2019-02-10T13:57:42.465Z,98184.65
2019-02-10T14:00:17.304Z,98194.61
2019-02-10T14:02:46.632Z,98171.52
2019-02-10T14:05:15.932Z,98193.53
2019-02-10T14:07:45.831Z,98188.66
2019-02-10T14:10:14.526Z,98182.20
2019-02-10T14:12:43.796Z,98198.78
2019-02-10T14:15:14.484Z,98184.20
2019-02-10T14:17:43.871Z,98204.28
2019-02-10T14:20:14.978Z,98166.70
2019-02-10T14:22:44.303Z,98158.13
2019-02-10T14:25:13.400Z,98142.50
2019-02-10T14:27:42.667Z,98141.52
2019-02-10T14:30:13.981Z,98141.83
2019-02-10T14:32:43.384Z,98156.30
2019-02-10T14:35:12.597Z,98177.30
2019-02-10T14:37:42.270Z,98201.11
2019-02-10T14:40:11.755Z,98215.39
2019-02-10T14:42:41.744Z,98231.61
2019-02-10T14:45:12.839Z,98328.17
2019-02-10T14:47:42.561Z,98336.05
2019-02-10T14:50:13.476Z,98299.73
2019-02-10T14:52:42.731Z,98304.35
2019-02-10T14:55:11.915Z,98339.70
2019-02-10T14:57:41.629Z,98328.28
2019-02-10T15:00:14.777Z,98339.17
2019-02-10T15:02:45.040Z,98337.20
2019-02-10T15:05:15.051Z,98344.40
2019-02-10T15:07:44.325Z,98362.87
2019-02-10T15:10:14.393Z,98363.19
2019-02-10T15:12:44.108Z,98367.64
2019-02-10T15:15:13.724Z,98364.47
2019-02-10T15:17:43.159Z,98364.64
2019-02-10T15:20:12.902Z,98386.68
2019-02-10T15:22:42.382Z,98387.89
2019-02-10T15:25:11.935Z,98390.69
2019-02-10T15:27:41.536Z,98386.45
2019-02-10T15:30:12.587Z,98399.03
2019-02-10T15:32:42.050Z,98388.84
2019-02-10T15:35:11.579Z,98387.50
2019-02-10T15:37:41.285Z,98388.72
2019-02-10T15:40:10.784Z,98396.22
2019-02-10T15:42:40.100Z,98403.00
2019-02-10T15:45:10.201Z,98405.70
2019-02-10T15:47:39.519Z,98413.88
2019-02-10T15:50:10.498Z,98422.20
2019-02-10T15:52:39.848Z,98416.55
2019-02-10T15:55:11.831Z,98455.13
2019-02-10T15:57:41.523Z,98454.32
2019-02-10T16:00:17.118Z,98461.50
2019-02-10T16:02:46.413Z,98467.31
2019-02-10T16:05:16.962Z,98467.31
2019-02-10T16:07:48.502Z,98483.91
2019-02-10T16:10:17.837Z,98487.18
2019-02-10T16:12:50.106Z,98478.79
2019-02-10T16:15:22.392Z,98468.34
2019-02-10T16:17:51.607Z,98474.83
2019-02-10T16:20:20.736Z,98465.11
2019-02-10T16:22:50.021Z,98456.23
2019-02-10T16:25:19.359Z,98443.78
2019-02-10T16:27:48.484Z,98450.38
2019-02-10T16:30:19.502Z,98482.66
2019-02-10T16:32:50.221Z,98489.26
2019-02-10T16:35:19.850Z,98501.77
2019-02-10T16:37:49.043Z,98509.47
2019-02-10T16:40:21.754Z,98490.98
2019-02-10T16:42:51.200Z,98486.82
2019-02-10T16:45:20.473Z,98507.77
2019-02-10T16:47:49.836Z,98518.53
2019-02-10T16:50:19.036Z,98515.42
2019-02-10T16:52:49.111Z,98514.09
2019-02-10T16:55:18.532Z,98527.63
2019-02-10T16:57:47.714Z,98526.44
2019-02-10T17:00:17.115Z,98532.73
2019-02-10T17:02:46.402Z,98529.94
2019-02-10T17:05:15.722Z,98538.00
2019-02-10T17:07:44.842Z,98528.89
2019-02-10T17:10:14.432Z,98536.61
2019-02-10T17:12:45.043Z,98536.84
2019-02-10T17:15:14.381Z,98551.94
2019-02-10T17:17:43.496Z,98564.77
2019-02-10T17:20:12.995Z,98579.45
2019-02-10T17:22:42.735Z,98592.11
2019-02-10T17:25:13.615Z,98593.90
2019-02-10T17:27:43.160Z,98607.09
2019-02-10T17:30:13.398Z,98612.13
2019-02-10T17:32:43.020Z,98604.12
2019-02-10T17:35:12.566Z,98624.06
2019-02-10T17:37:42.193Z,98635.97
2019-02-10T17:40:19.975Z,98641.30
2019-02-10T17:42:49.551Z,98651.08
2019-02-10T17:45:18.875Z,98664.73
2019-02-10T17:47:48.160Z,98675.08
2019-02-10T17:50:17.518Z,98677.24
2019-02-10T17:52:46.938Z,98691.16
2019-02-10T17:55:16.650Z,98705.29
2019-02-10T17:57:45.857Z,98718.77
2019-02-10T18:00:24.470Z,98713.44
2019-02-10T18:02:53.904Z,98715.52
2019-02-10T18:05:23.243Z,98709.94
2019-02-10T18:07:52.503Z,98724.31
2019-02-10T18:10:21.883Z,98707.99
2019-02-10T18:12:52.230Z,98711.63
2019-02-10T18:15:52.545Z,98713.18
2019-02-10T18:18:47.021Z,98719.23
2019-02-10T18:21:41.830Z,98726.55
2019-02-10T18:24:30.362Z,98734.97
2019-02-10T18:27:07.163Z,98742.14
2019-02-10T18:30:01.465Z,98753.48
2019-02-10T18:32:58.876Z,98757.23
2019-02-10T18:36:05.482Z,98760.09
2019-02-10T18:38:52.873Z,98762.46
2019-02-10T18:41:39.109Z,98762.03
2019-02-10T18:44:24.050Z,98774.75
2019-02-10T18:47:15.568Z,98778.32
2019-02-10T18:50:12.522Z,98782.45
2019-02-10T18:52:57.563Z,98786.16
2019-02-10T18:55:54.701Z,98803.28
2019-02-10T18:58:54.190Z,98798.63
2019-02-10T19:01:32.625Z,98790.30
2019-02-10T19:04:23.853Z,98812.75
2019-02-10T19:07:05.231Z,98812.08
2019-02-10T19:09:57.709Z,98819.57
2019-02-10T19:12:52.130Z,98805.66
2019-02-10T19:15:41.250Z,98821.86
2019-02-10T19:18:22.135Z,98812.78
2019-02-10T19:21:07.336Z,98823.24
2019-02-10T19:23:55.201Z,98808.36
2019-02-10T19:26:34.671Z,98813.47
2019-02-10T19:29:15.858Z,98826.70
2019-02-10T19:32:02.572Z,98831.83
2019-02-10T19:34:51.898Z,98826.70
2019-02-10T19:37:52.505Z,98833.80
2019-02-10T19:40:47.049Z,98834.20
2019-02-10T19:43:45.331Z,98852.75
2019-02-10T19:46:25.820Z,98838.28
2019-02-10T19:49:12.736Z,98840.45
2019-02-10T19:51:52.504Z,98845.57
2019-02-10T19:54:44.194Z,98852.45
2019-02-10T19:57:44.571Z,98860.27
2019-02-10T20:00:24.243Z,98886.52
2019-02-10T20:03:21.532Z,98875.56
2019-02-10T20:06:10.309Z,98872.84
2019-02-10T20:08:57.836Z,98871.39
2019-02-10T20:11:48.966Z,98876.43
2019-02-10T20:14:33.521Z,98885.55
2019-02-10T20:17:31.052Z,98890.28
2019-02-10T20:20:12.502Z,98890.28
2019-02-10T20:23:00.978Z,98908.44
2019-02-10T20:25:54.534Z,98911.59
2019-02-10T20:28:49.021Z,98915.71
2019-02-10T20:31:33.025Z,98927.78
2019-02-10T20:34:21.469Z,98934.05
2019-02-10T20:37:08.625Z,98944.83
2019-02-10T20:39:46.491Z,98932.10
2019-02-10T20:42:34.853Z,98945.94
2019-02-10T20:45:23.292Z,98946.96
2019-02-10T20:48:23.720Z,98956.58
2019-02-10T20:51:11.985Z,98954.03
2019-02-10T20:53:55.328Z,98973.28
2019-02-10T20:56:58.568Z,98987.08
2019-02-10T20:59:44.463Z,99003.45
2019-02-10T21:02:31.218Z,99002.23
2019-02-10T21:05:07.154Z,99020.86
2019-02-10T21:07:52.770Z,99032.94
2019-02-10T21:10:33.740Z,99033.97
2019-02-10T21:13:26.215Z,99039.59
2019-02-10T21:16:24.746Z,99033.03
2019-02-10T21:19:05.637Z,99039.92
2019-02-10T21:21:42.815Z,99037.25
2019-02-10T21:24:22.908Z,99026.28
2019-02-10T21:27:11.064Z,99038.75
2019-02-10T21:29:58.248Z,99039.72
2019-02-10T21:32:45.212Z,99051.89
2019-02-10T21:35:45.668Z,99068.27
2019-02-10T21:38:34.012Z,99082.54
2019-02-10T21:41:34.520Z,99079.75
2019-02-10T21:44:29.056Z,99091.95
2019-02-10T21:47:13.103Z,99111.20
2019-02-10T21:49:42.378Z,99107.63
2019-02-10T21:52:11.646Z,99119.41
2019-02-10T21:54:40.809Z,99117.45
2019-02-10T21:57:09.910Z,99118.91
2019-02-10T21:59:39.394Z,99112.56
2019-02-10T22:02:08.743Z,99114.79
2019-02-10T22:04:38.652Z,99117.78
2019-02-10T22:07:07.765Z,99124.98
2019-02-10T22:09:36.970Z,99116.05
2019-02-10T22:12:06.196Z,99133.03
2019-02-10T22:14:35.449Z,99134.92
2019-02-10T22:17:04.599Z,99137.22
2019-02-10T22:19:34.091Z,99125.93
2019-02-10T22:22:03.338Z,99125.41
2019-02-10T22:24:32.457Z,99121.98
2019-02-10T22:27:01.574Z,99127.01
2019-02-10T22:29:30.800Z,99127.84
2019-02-10T22:32:00.122Z,99118.72
2019-02-10T22:34:29.216Z,99125.04
2019-02-10T22:36:58.343Z,99128.30
2019-02-10T22:39:27.551Z,99131.90
2019-02-10T22:41:56.767Z,99140.62
2019-02-10T22:44:26.020Z,99146.34
2019-02-10T22:46:55.134Z,99146.04
2019-02-10T22:49:24.654Z,99156.69
2019-02-10T22:51:53.791Z,99164.98
2019-02-10T22:54:22.950Z,99162.02
2019-02-10T22:56:52.150Z,99164.05
2019-02-10T22:59:21.342Z,99166.85
2019-02-10T23:01:50.693Z,99165.08
2019-02-10T23:04:19.912Z,99170.44
2019-02-10T23:06:49.030Z,99182.28
2019-02-10T23:09:22.072Z,99191.41
2019-02-10T23:11:51.593Z,99202.26
2019-02-10T23:14:20.730Z,99217.95
2019-02-10T23:16:49.894Z,99223.60
2019-02-10T23:19:19.948Z,99237.72
2019-02-10T23:21:49.129Z,99242.44
2019-02-10T23:24:18.554Z,99253.98
2019-02-10T23:26:47.641Z,99259.45
2019-02-10T23:29:16.851Z,99273.06
2019-02-10T23:31:46.094Z,99283.33
2019-02-10T23:34:15.390Z,99281.05
2019-02-10T23:36:44.494Z,99295.45
2019-02-10T23:39:13.892Z,99292.87
2019-02-10T23:41:43.168Z,99292.09
2019-02-10T23:44:12.290Z,99306.05
2019-02-10T23:46:41.463Z,99305.61
2019-02-10T23:49:10.596Z,99307.77
2019-02-10T23:51:39.873Z,99313.73
2019-02-10T23:54:09.042Z,99314.95
2019-02-10T23:56:38.138Z,99328.91
2019-02-10T23:59:07.509Z,99328.08
